createdAt,value
2022-12-11T00:02:06.441Z,97823.53
2022-12-11T00:04:33.164Z,97822.66
2022-12-11T00:06:59.796Z,97826.81
2022-12-11T00:09:26.710Z,97822.63
2022-12-11T00:11:53.357Z,97825.13
2022-12-11T00:14:20.048Z,97826.63
2022-12-11T00:16:48.706Z,97824.91
2022-12-11T00:19:16.102Z,97818.16
2022-12-11T00:21:42.677Z,97815.47
2022-12-11T00:24:09.423Z,97813.81
2022-12-11T00:26:35.991Z,97814.78
2022-12-11T00:29:03.219Z,97819.94
2022-12-11T00:31:30.101Z,97814.00
2022-12-11T00:33:56.924Z,97808.72
2022-12-11T00:36:26.279Z,97811.28
2022-12-11T00:38:53.988Z,97819.81
2022-12-11T00:41:21.144Z,97808.66
2022-12-11T00:43:48.397Z,97806.06
2022-12-11T00:46:15.305Z,97807.66
2022-12-11T00:48:42.244Z,97811.00
2022-12-11T00:51:10.261Z,97812.72
2022-12-11T00:53:37.336Z,97811.97
2022-12-11T00:56:10.387Z,97820.31
2022-12-11T00:58:37.066Z,97817.75
2022-12-11T01:01:13.128Z,97821.16
2022-12-11T01:03:39.943Z,97816.09
2022-12-11T01:06:07.391Z,97817.00
2022-12-11T01:08:38.528Z,97818.00
2022-12-11T01:11:08.712Z,97817.91
2022-12-11T01:13:35.952Z,97819.59
2022-12-11T01:16:10.872Z,97819.50
2022-12-11T01:18:38.137Z,97824.53
2022-12-11T01:21:09.852Z,97823.75
2022-12-11T01:23:37.215Z,97826.31
2022-12-11T01:26:12.546Z,97831.47
2022-12-11T01:28:40.300Z,97828.91
2022-12-11T01:31:14.744Z,97833.88
2022-12-11T01:33:41.437Z,97838.34
2022-12-11T01:36:14.231Z,97849.53
2022-12-11T01:38:41.042Z,97846.25
2022-12-11T01:41:08.419Z,97848.81
2022-12-11T01:43:35.353Z,97844.50
2022-12-11T01:46:02.079Z,97851.44
2022-12-11T01:48:31.592Z,97846.31
2022-12-11T01:51:02.360Z,97848.81
2022-12-11T01:53:34.694Z,97851.25
2022-12-11T01:56:02.796Z,97853.94
2022-12-11T01:58:35.641Z,97842.94
2022-12-11T02:01:03.449Z,97845.53
2022-12-11T02:03:30.439Z,97846.34
2022-12-11T02:06:02.619Z,97848.69
2022-12-11T02:08:29.872Z,97847.72
2022-12-11T02:11:06.626Z,97840.22
2022-12-11T02:13:54.927Z,97843.44
2022-12-11T02:16:29.799Z,97845.13
2022-12-11T02:19:06.125Z,97844.25
2022-12-11T02:21:41.291Z,97846.91
2022-12-11T02:24:27.146Z,97843.41
2022-12-11T02:27:09.046Z,97840.06
2022-12-11T02:29:39.647Z,97841.78
2022-12-11T02:32:12.762Z,97835.78
2022-12-11T02:34:47.154Z,97842.53
2022-12-11T02:37:20.389Z,97839.13
2022-12-11T02:39:49.798Z,97833.94
2022-12-11T02:42:17.243Z,97830.63
2022-12-11T02:44:44.931Z,97829.66
2022-12-11T02:47:14.114Z,97833.06
2022-12-11T02:49:44.086Z,97833.22
2022-12-11T02:52:14.486Z,97840.94
2022-12-11T02:54:44.695Z,97840.00
2022-12-11T02:57:22.175Z,97837.41
2022-12-11T02:59:48.793Z,97839.13
2022-12-11T03:02:17.095Z,97842.53
2022-12-11T03:04:44.920Z,97834.94
2022-12-11T03:07:18.952Z,97827.09
2022-12-11T03:09:47.966Z,97833.97
2022-12-11T03:12:24.021Z,97834.78
2022-12-11T03:14:51.085Z,97833.00
2022-12-11T03:17:22.163Z,97827.13
2022-12-11T03:20:00.461Z,97827.03
2022-12-11T03:22:41.771Z,97831.22
2022-12-11T03:25:17.908Z,97834.69
2022-12-11T03:27:58.936Z,97843.25
2022-12-11T03:30:27.329Z,97838.88
2022-12-11T03:33:04.170Z,97840.59
2022-12-11T03:35:48.743Z,97833.00
2022-12-11T03:38:32.012Z,97836.31
2022-12-11T03:41:02.411Z,97832.13
2022-12-11T03:43:32.167Z,97834.69
2022-12-11T03:46:00.658Z,97832.91
2022-12-11T03:48:34.762Z,97838.09
2022-12-11T03:51:05.538Z,97829.50
2022-12-11T03:53:35.080Z,97832.94
2022-12-11T03:56:04.290Z,97831.28
2022-12-11T03:58:31.159Z,97824.50
2022-12-11T04:00:57.964Z,97827.84
2022-12-11T04:03:25.118Z,97828.69
2022-12-11T04:05:55.980Z,97833.06
2022-12-11T04:08:23.169Z,97830.50
2022-12-11T04:11:13.573Z,97833.94
2022-12-11T04:13:41.803Z,97826.16
2022-12-11T04:16:09.326Z,97826.22
2022-12-11T04:18:54.676Z,97833.22
2022-12-11T04:21:40.004Z,97828.91
2022-12-11T04:24:16.513Z,97834.78
2022-12-11T04:26:47.106Z,97828.81
2022-12-11T04:29:14.695Z,97833.13
2022-12-11T04:31:41.773Z,97827.06
2022-12-11T04:34:08.701Z,97827.84
2022-12-11T04:36:35.973Z,97826.13
2022-12-11T04:39:04.247Z,97824.50
2022-12-11T04:41:31.047Z,97815.97
2022-12-11T04:43:57.788Z,97810.88
2022-12-11T04:46:25.562Z,97815.97
2022-12-11T04:48:57.286Z,97814.31
2022-12-11T04:51:25.216Z,97822.97
2022-12-11T04:53:51.972Z,97819.47
2022-12-11T04:56:18.515Z,97808.38
2022-12-11T04:58:47.327Z,97814.25
2022-12-11T05:01:24.070Z,97809.94
2022-12-11T05:03:50.667Z,97815.09
2022-12-11T05:06:17.567Z,97802.25
2022-12-11T05:08:45.637Z,97812.50
2022-12-11T05:11:14.908Z,97803.97
2022-12-11T05:13:42.173Z,97812.50
2022-12-11T05:16:10.820Z,97807.34
2022-12-11T05:18:37.996Z,97808.13
2022-12-11T05:21:08.118Z,97810.69
2022-12-11T05:23:35.215Z,97808.09
2022-12-11T05:26:05.289Z,97815.78
2022-12-11T05:28:34.175Z,97822.66
2022-12-11T05:31:08.441Z,97814.94
2022-12-11T05:33:35.504Z,97820.00
2022-12-11T05:36:02.169Z,97812.41
2022-12-11T05:38:28.722Z,97809.81
2022-12-11T05:41:04.233Z,97803.81
2022-12-11T05:43:32.634Z,97802.00
2022-12-11T05:46:14.078Z,97800.28
2022-12-11T05:48:41.968Z,97814.00
2022-12-11T05:51:09.324Z,97811.41
2022-12-11T05:53:37.519Z,97812.38
2022-12-11T05:56:06.416Z,97818.38
2022-12-11T05:58:33.846Z,97808.13
2022-12-11T06:01:00.719Z,97808.03
2022-12-11T06:03:27.774Z,97805.53
2022-12-11T06:05:54.516Z,97806.34
2022-12-11T06:08:21.057Z,97805.53
2022-12-11T06:10:49.205Z,97810.72
2022-12-11T06:13:16.471Z,97808.06
2022-12-11T06:15:43.460Z,97807.25
2022-12-11T06:18:10.183Z,97806.38
2022-12-11T06:20:37.277Z,97811.50
2022-12-11T06:23:04.017Z,97801.22
2022-12-11T06:25:31.220Z,97808.94
2022-12-11T06:27:58.468Z,97799.50
2022-12-11T06:30:38.461Z,97796.91
2022-12-11T06:33:06.791Z,97791.78
2022-12-11T06:35:36.306Z,97795.22
2022-12-11T06:38:08.147Z,97799.50
2022-12-11T06:40:34.827Z,97797.81
2022-12-11T06:43:01.440Z,97793.63
2022-12-11T06:45:28.083Z,97792.81
2022-12-11T06:47:54.696Z,97791.88
2022-12-11T06:50:21.291Z,97793.59
2022-12-11T06:52:47.874Z,97788.41
2022-12-11T06:55:14.538Z,97790.94
2022-12-11T06:57:41.164Z,97791.81
2022-12-11T07:00:08.433Z,97788.38
2022-12-11T07:02:35.342Z,97799.50
2022-12-11T07:05:02.198Z,97796.91
2022-12-11T07:07:28.792Z,97794.34
2022-12-11T07:09:55.486Z,97792.63
2022-12-11T07:12:22.165Z,97795.22
2022-12-11T07:14:48.947Z,97789.22
2022-12-11T07:17:15.599Z,97793.53
2022-12-11T07:19:42.430Z,97802.94
2022-12-11T07:22:09.088Z,97798.75
2022-12-11T07:24:35.748Z,97800.38
2022-12-11T07:27:02.321Z,97798.69
2022-12-11T07:29:28.990Z,97803.06
2022-12-11T07:31:55.752Z,97799.63
2022-12-11T07:34:22.578Z,97794.53
2022-12-11T07:36:49.243Z,97803.09
2022-12-11T07:39:16.348Z,97801.44
2022-12-11T07:41:43.232Z,97804.88
2022-12-11T07:44:09.979Z,97804.94
2022-12-11T07:46:36.617Z,97798.88
2022-12-11T07:49:05.323Z,97801.47
2022-12-11T07:51:37.025Z,97804.06
2022-12-11T07:54:07.199Z,97807.44
2022-12-11T07:56:34.723Z,97807.59
2022-12-11T07:59:06.247Z,97807.56
2022-12-11T08:01:36.613Z,97811.84
2022-12-11T08:04:10.000Z,97811.06
2022-12-11T08:06:39.594Z,97804.31
2022-12-11T08:09:09.506Z,97803.53
2022-12-11T08:11:36.864Z,97801.94
2022-12-11T08:14:03.619Z,97810.56
2022-12-11T08:16:30.432Z,97803.84
2022-12-11T08:18:58.358Z,97805.56
2022-12-11T08:21:27.212Z,97803.00
2022-12-11T08:23:54.764Z,97813.28
2022-12-11T08:26:27.949Z,97809.84
2022-12-11T08:28:54.713Z,97803.00
2022-12-11T08:31:21.700Z,97809.84
2022-12-11T08:33:49.406Z,97814.06
2022-12-11T08:36:19.459Z,97824.25
2022-12-11T08:38:47.001Z,97828.56
2022-12-11T08:41:20.702Z,97825.97
2022-12-11T08:43:48.369Z,97821.59
2022-12-11T08:46:15.460Z,97821.66
2022-12-11T08:48:43.366Z,97819.13
2022-12-11T08:51:15.864Z,97829.41
2022-12-11T08:53:42.791Z,97826.06
2022-12-11T08:56:12.821Z,97825.38
2022-12-11T08:58:39.675Z,97832.38
2022-12-11T09:01:15.444Z,97831.63
2022-12-11T09:03:43.003Z,97825.69
2022-12-11T09:06:16.836Z,97824.66
2022-12-11T09:08:50.346Z,97825.59
2022-12-11T09:11:22.759Z,97830.00
2022-12-11T09:13:49.620Z,97817.19
2022-12-11T09:16:19.429Z,97831.72
2022-12-11T09:18:48.238Z,97823.81
2022-12-11T09:21:20.171Z,97816.81
2022-12-11T09:23:47.417Z,97826.41
2022-12-11T09:26:17.485Z,97818.66
2022-12-11T09:28:46.926Z,97815.38
2022-12-11T09:31:25.977Z,97826.75
2022-12-11T09:33:57.495Z,97811.38
2022-12-11T09:36:24.843Z,97817.38
2022-12-11T09:38:52.365Z,97817.41
2022-12-11T09:41:22.119Z,97804.66
2022-12-11T09:44:17.047Z,97806.41
2022-12-11T09:46:45.023Z,97811.53
2022-12-11T09:49:32.019Z,97813.97
2022-12-11T09:52:03.264Z,97812.00
2022-12-11T09:54:30.056Z,97812.00
2022-12-11T09:57:07.452Z,97806.41
2022-12-11T10:00:09.753Z,97809.84
2022-12-11T10:02:45.680Z,97808.34
2022-12-11T10:05:37.964Z,97809.19
2022-12-11T10:08:25.454Z,97804.91
2022-12-11T10:11:06.405Z,97796.88
2022-12-11T10:14:02.329Z,97801.19
2022-12-11T10:16:45.350Z,97804.03
2022-12-11T10:19:22.210Z,97803.09
2022-12-11T10:21:51.012Z,97800.50
2022-12-11T10:24:59.319Z,97799.81
2022-12-11T10:27:22.035Z,97790.19
2022-12-11T10:29:57.792Z,97797.06
2022-12-11T10:32:30.148Z,97795.47
2022-12-11T10:35:05.624Z,97792.00
2022-12-11T10:37:32.463Z,97787.72
2022-12-11T10:39:59.123Z,97787.03
2022-12-11T10:42:25.846Z,97779.31
2022-12-11T10:44:58.206Z,97774.25
2022-12-11T10:47:24.965Z,97767.34
2022-12-11T10:49:59.348Z,97763.69
2022-12-11T10:52:29.819Z,97770.59
2022-12-11T10:55:18.656Z,97772.94
2022-12-11T10:57:46.274Z,97772.25
2022-12-11T11:00:40.811Z,97765.22
2022-12-11T11:03:22.787Z,97771.28
2022-12-11T11:05:50.792Z,97768.03
2022-12-11T11:08:21.799Z,97759.28
2022-12-11T11:10:58.532Z,97767.84
2022-12-11T11:13:30.047Z,97755.25
2022-12-11T11:16:17.993Z,97761.97
2022-12-11T11:18:53.246Z,97758.66
2022-12-11T11:21:25.853Z,97754.28
2022-12-11T11:23:54.214Z,97758.59
2022-12-11T11:26:23.163Z,97744.84
2022-12-11T11:28:54.283Z,97751.53
2022-12-11T11:31:30.632Z,97745.44
2022-12-11T11:34:04.185Z,97748.19
2022-12-11T11:36:34.120Z,97748.97
2022-12-11T11:39:40.269Z,97747.28
2022-12-11T11:42:15.360Z,97743.81
2022-12-11T11:45:02.966Z,97744.66
2022-12-11T11:47:40.727Z,97741.25
2022-12-11T11:50:22.588Z,97736.94
2022-12-11T11:53:01.858Z,97731.69
2022-12-11T11:55:50.578Z,97732.53
2022-12-11T11:58:23.161Z,97727.28
2022-12-11T12:00:53.641Z,97727.31
2022-12-11T12:03:23.245Z,97726.78
2022-12-11T12:05:52.957Z,97730.91
2022-12-11T12:08:38.508Z,97729.22
2022-12-11T12:11:16.970Z,97732.56
2022-12-11T12:13:53.971Z,97731.00
2022-12-11T12:19:43.797Z,97728.25
2022-12-11T12:22:28.371Z,97740.97
2022-12-11T12:25:22.661Z,97730.84
2022-12-11T12:28:04.695Z,97735.13
2022-12-11T12:30:44.772Z,97730.81
2022-12-11T12:33:25.773Z,97734.25
2022-12-11T12:36:10.901Z,97725.94
2022-12-11T12:39:00.287Z,97736.25
2022-12-11T12:41:43.486Z,97735.13
2022-12-11T12:44:15.594Z,97735.63
2022-12-11T12:46:51.511Z,97740.00
2022-12-11T12:49:43.114Z,97732.03
2022-12-11T12:52:37.462Z,97722.63
2022-12-11T12:55:18.161Z,97726.91
2022-12-11T12:57:47.739Z,97724.44
2022-12-11T13:00:31.481Z,97732.91
2022-12-11T13:03:01.723Z,97727.88
2022-12-11T13:05:34.352Z,97728.81
2022-12-11T13:08:05.176Z,97719.50
2022-12-11T13:10:34.826Z,97728.09
2022-12-11T13:13:03.585Z,97721.19
2022-12-11T13:15:43.862Z,97722.06
2022-12-11T13:18:49.319Z,97721.22
2022-12-11T13:21:28.193Z,97724.72
2022-12-11T13:23:56.113Z,97721.22
2022-12-11T13:26:33.837Z,97718.72
2022-12-11T13:29:00.574Z,97717.75
2022-12-11T13:31:39.554Z,97713.38
2022-12-11T13:34:22.430Z,97710.97
2022-12-11T13:36:51.247Z,97715.16
2022-12-11T13:39:17.787Z,97718.53
2022-12-11T13:41:52.307Z,97714.16
2022-12-11T13:44:26.994Z,97718.41
2022-12-11T13:46:57.308Z,97724.44
2022-12-11T13:49:28.317Z,97721.03
2022-12-11T13:51:59.786Z,97723.56
2022-12-11T13:54:28.582Z,97716.59
2022-12-11T13:56:56.240Z,97729.50
2022-12-11T13:59:29.285Z,97728.44
2022-12-11T14:01:59.138Z,97726.94
2022-12-11T14:04:28.287Z,97732.88
2022-12-11T14:06:57.839Z,97730.25
2022-12-11T14:09:27.387Z,97731.06
2022-12-11T14:11:57.352Z,97733.69
2022-12-11T14:14:30.564Z,97739.66
2022-12-11T14:16:57.322Z,97731.97
2022-12-11T14:19:25.108Z,97730.25
2022-12-11T14:22:03.597Z,97731.13
2022-12-11T14:24:32.272Z,97725.88
2022-12-11T14:26:59.503Z,97730.75
2022-12-11T14:29:31.754Z,97730.66
2022-12-11T14:32:07.084Z,97735.69
2022-12-11T14:34:45.501Z,97733.00
2022-12-11T14:37:16.046Z,97729.50
2022-12-11T14:39:53.075Z,97731.25
2022-12-11T14:42:23.657Z,97732.84
2022-12-11T14:44:56.610Z,97732.00
2022-12-11T14:47:34.531Z,97730.41
2022-12-11T14:50:17.059Z,97734.47
2022-12-11T14:52:48.612Z,97737.72
2022-12-11T14:55:22.691Z,97741.25
2022-12-11T14:57:53.719Z,97740.28
2022-12-11T15:00:27.064Z,97738.75
2022-12-11T15:03:05.433Z,97740.44
2022-12-11T15:05:40.618Z,97741.03
2022-12-11T15:08:10.624Z,97739.34
2022-12-11T15:11:09.151Z,97744.56
2022-12-11T15:13:39.391Z,97740.34
2022-12-11T15:16:07.645Z,97739.50
2022-12-11T15:18:39.556Z,97737.69
2022-12-11T15:21:10.106Z,97741.25
2022-12-11T15:23:57.859Z,97738.47
2022-12-11T15:26:38.956Z,97745.34
2022-12-11T15:29:24.359Z,97735.94
2022-12-11T15:32:14.303Z,97749.72
2022-12-11T15:34:48.383Z,97745.28
2022-12-11T15:37:28.513Z,97747.97
2022-12-11T15:39:56.779Z,97747.91
2022-12-11T15:42:34.449Z,97756.47
2022-12-11T15:45:02.942Z,97752.06
2022-12-11T15:47:30.988Z,97747.75
2022-12-11T15:50:00.259Z,97758.13
2022-12-11T15:52:26.988Z,97758.16
2022-12-11T15:54:53.898Z,97757.28
2022-12-11T15:57:23.976Z,97751.31
2022-12-11T15:59:52.914Z,97764.28
2022-12-11T16:02:19.640Z,97760.88
2022-12-11T16:04:46.274Z,97767.75
2022-12-11T16:07:21.024Z,97764.22
2022-12-11T16:09:48.324Z,97773.75
2022-12-11T16:12:15.483Z,97770.16
2022-12-11T16:14:43.481Z,97771.06
2022-12-11T16:17:12.874Z,97771.06
2022-12-11T16:19:40.384Z,97767.72
2022-12-11T16:22:08.887Z,97776.38
2022-12-11T16:24:38.885Z,97771.28
2022-12-11T16:27:06.947Z,97777.34
2022-12-11T16:29:35.095Z,97777.34
2022-12-11T16:32:01.841Z,97772.06
2022-12-11T16:34:28.435Z,97772.06
2022-12-11T16:36:58.063Z,97770.34
2022-12-11T16:39:25.063Z,97767.00
2022-12-11T16:41:51.708Z,97766.97
2022-12-11T16:44:23.286Z,97769.63
2022-12-11T16:46:50.376Z,97763.63
2022-12-11T16:49:17.828Z,97761.88
2022-12-11T16:51:44.717Z,97763.56
2022-12-11T16:54:11.472Z,97756.72
2022-12-11T16:56:38.739Z,97755.88
2022-12-11T16:59:06.066Z,97760.13
2022-12-11T17:01:33.885Z,97761.03
2022-12-11T17:04:03.101Z,97755.88
2022-12-11T17:06:31.119Z,97756.63
2022-12-11T17:08:57.953Z,97758.34
2022-12-11T17:11:26.243Z,97756.63
2022-12-11T17:13:57.823Z,97750.56
2022-12-11T17:16:29.157Z,97753.06
2022-12-11T17:18:57.612Z,97756.47
2022-12-11T17:21:24.991Z,97751.31
2022-12-11T17:23:52.004Z,97755.59
2022-12-11T17:26:19.091Z,97750.34
2022-12-11T17:28:45.871Z,97756.31
2022-12-11T17:31:15.489Z,97757.94
2022-12-11T17:33:42.630Z,97749.22
2022-12-11T17:36:11.177Z,97768.03
2022-12-11T17:38:37.873Z,97767.94
2022-12-11T17:41:09.177Z,97774.84
2022-12-11T17:43:36.325Z,97771.31
2022-12-11T17:46:04.970Z,97771.38
2022-12-11T17:48:32.271Z,97769.50
2022-12-11T17:51:04.075Z,97773.78
2022-12-11T17:53:31.088Z,97769.41
2022-12-11T17:56:00.585Z,97767.78
2022-12-11T17:58:27.507Z,97762.75
2022-12-11T18:00:55.879Z,97765.22
2022-12-11T18:03:26.436Z,97762.75
2022-12-11T18:05:56.939Z,97767.84
2022-12-11T18:08:28.572Z,97767.78
2022-12-11T18:10:55.260Z,97759.22
2022-12-11T18:13:24.818Z,97774.72
2022-12-11T18:16:02.561Z,97767.88
2022-12-11T18:18:29.385Z,97768.75
2022-12-11T18:20:55.992Z,97767.84
2022-12-11T18:23:30.149Z,97775.50
2022-12-11T18:25:56.866Z,97763.56
2022-12-11T18:28:26.570Z,97761.75
2022-12-11T18:30:53.563Z,97767.78
2022-12-11T18:33:20.185Z,97774.66
2022-12-11T18:35:50.602Z,97776.41
2022-12-11T18:38:17.337Z,97779.06
2022-12-11T18:40:44.056Z,97774.78
2022-12-11T18:43:11.202Z,97784.19
2022-12-11T18:45:49.645Z,97786.84
2022-12-11T18:48:16.247Z,97795.31
2022-12-11T18:50:47.759Z,97792.00
2022-12-11T18:53:14.687Z,97786.78
2022-12-11T18:55:47.123Z,97788.63
2022-12-11T18:58:16.300Z,97791.16
2022-12-11T19:00:43.783Z,97790.44
2022-12-11T19:03:19.371Z,97781.78
2022-12-11T19:05:48.316Z,97785.19
2022-12-11T19:08:16.395Z,97787.13
2022-12-11T19:10:45.045Z,97787.00
2022-12-11T19:13:15.148Z,97788.69
2022-12-11T19:15:43.729Z,97791.28
2022-12-11T19:18:11.232Z,97793.84
2022-12-11T19:20:57.772Z,97787.84
2022-12-11T19:23:29.662Z,97795.59
2022-12-11T19:25:56.304Z,97786.19
2022-12-11T19:28:22.853Z,97784.34
2022-12-11T19:30:49.881Z,97786.91
2022-12-11T19:33:17.695Z,97781.75
2022-12-11T19:35:45.594Z,97781.75
2022-12-11T19:38:13.069Z,97787.75
2022-12-11T19:40:44.532Z,97784.22
2022-12-11T19:43:11.257Z,97786.78
2022-12-11T19:45:38.231Z,97785.88
2022-12-11T19:48:05.258Z,97785.72
2022-12-11T19:50:31.805Z,97776.34
2022-12-11T19:52:58.436Z,97775.41
2022-12-11T19:55:25.018Z,97778.84
2022-12-11T19:57:51.658Z,97771.84
2022-12-11T20:00:19.045Z,97776.00
2022-12-11T20:02:45.786Z,97774.25
2022-12-11T20:05:13.364Z,97778.47
2022-12-11T20:07:42.806Z,97774.09
2022-12-11T20:10:09.777Z,97777.41
2022-12-11T20:12:36.395Z,97783.28
2022-12-11T20:15:15.751Z,97776.38
2022-12-11T20:17:44.693Z,97782.38
2022-12-11T20:20:11.881Z,97779.81
2022-12-11T20:22:39.050Z,97777.34
2022-12-11T20:25:06.255Z,97771.25
2022-12-11T20:27:33.076Z,97770.44
2022-12-11T20:29:59.755Z,97768.69
2022-12-11T20:32:26.422Z,97771.19
2022-12-11T20:35:06.458Z,97777.00
2022-12-11T20:37:33.486Z,97771.78
2022-12-11T20:40:00.403Z,97770.94
2022-12-11T20:42:28.987Z,97780.38
2022-12-11T20:44:55.579Z,97769.13
2022-12-11T20:47:31.076Z,97768.19
2022-12-11T20:49:57.847Z,97783.47
2022-12-11T20:52:29.117Z,97782.38
2022-12-11T20:54:58.081Z,97782.19
2022-12-11T20:57:25.162Z,97784.53
2022-12-11T20:59:51.819Z,97786.13
2022-12-11T21:02:18.485Z,97786.91
2022-12-11T21:04:51.798Z,97783.28
2022-12-11T21:07:18.561Z,97781.56
2022-12-11T21:09:45.238Z,97781.47
2022-12-11T21:12:11.840Z,97783.16
2022-12-11T21:14:38.979Z,97790.78
2022-12-11T21:17:19.989Z,97786.50
2022-12-11T21:19:46.692Z,97778.75
2022-12-11T21:22:13.367Z,97790.78
2022-12-11T21:24:40.705Z,97791.56
2022-12-11T21:27:07.656Z,97790.78
2022-12-11T21:29:37.341Z,97790.84
2022-12-11T21:32:04.402Z,97788.44
2022-12-11T21:34:31.165Z,97785.84
2022-12-11T21:36:57.965Z,97789.25
2022-12-11T21:39:25.809Z,97788.44
2022-12-11T21:41:52.542Z,97782.31
2022-12-11T21:47:09.100Z,97792.63
2022-12-11T21:49:35.848Z,97793.34
2022-12-11T21:52:03.214Z,97795.91
2022-12-11T21:54:32.019Z,97795.75
2022-12-11T21:56:58.563Z,97795.91
2022-12-11T21:59:25.148Z,97795.28
2022-12-11T22:01:52.221Z,97790.31
2022-12-11T22:04:21.617Z,97800.69
2022-12-11T22:06:48.156Z,97806.84
2022-12-11T22:09:16.410Z,97803.69
2022-12-11T22:11:45.229Z,97795.22
2022-12-11T22:14:13.732Z,97803.78
2022-12-11T22:16:40.517Z,97803.88
2022-12-11T22:19:07.252Z,97809.78
2022-12-11T22:21:33.877Z,97810.75
2022-12-11T22:24:00.609Z,97809.13
2022-12-11T22:26:28.569Z,97803.19
2022-12-11T22:28:55.743Z,97808.22
2022-12-11T22:31:26.714Z,97797.13
2022-12-11T22:33:54.932Z,97802.41
2022-12-11T22:36:23.382Z,97797.31
2022-12-11T22:38:50.336Z,97804.22
2022-12-11T22:41:24.965Z,97804.28
2022-12-11T22:43:54.445Z,97804.28
2022-12-11T22:46:24.020Z,97806.88
2022-12-11T22:48:58.466Z,97795.75
2022-12-11T22:51:25.156Z,97795.91
2022-12-11T22:53:51.778Z,97799.38
2022-12-11T22:56:18.571Z,97801.19
2022-12-11T22:58:45.304Z,97796.09
2022-12-11T23:01:17.006Z,97786.66
2022-12-11T23:03:43.719Z,97789.97
2022-12-11T23:06:15.564Z,97789.09
2022-12-11T23:08:43.266Z,97802.00
2022-12-11T23:11:19.368Z,97795.09
2022-12-11T23:13:46.150Z,97800.16
2022-12-11T23:16:12.909Z,97799.31
2022-12-11T23:18:39.663Z,97800.19
2022-12-11T23:21:09.921Z,97808.00
2022-12-11T23:23:36.796Z,97799.50
2022-12-11T23:26:05.304Z,97808.91
2022-12-11T23:28:32.255Z,97804.66
2022-12-11T23:30:58.998Z,97804.72
2022-12-11T23:33:25.674Z,97808.19
2022-12-11T23:35:52.399Z,97801.25
2022-12-11T23:38:18.951Z,97790.06
2022-12-11T23:40:45.637Z,97808.00
2022-12-11T23:43:12.328Z,97798.69
2022-12-11T23:45:38.857Z,97804.66
2022-12-11T23:48:05.585Z,97811.59
2022-12-11T23:50:33.122Z,97800.47
2022-12-11T23:52:59.776Z,97802.16
2022-12-11T23:55:27.478Z,97802.88
2022-12-11T23:57:54.211Z,97808.00
